Time;durP1;ratioP1;P1;durP2;ratioP2;P2;SDS_P1;SDS_P2;PMS_P1;PMS_P2;Temp;Humidity;BMP_temperature;BMP_pressure;BME280_temperature;BME280_humidity;BME280_pressure;Samples;Min_cycle;Max_cycle;Signal;HPM_P1;HPM_P2
2021/12/06 00:01:45;;;;;;;10.27;9.32;;;3.50;99.90;;;;;;5059128;28;20200;-85
2021/12/06 00:04:17;;;;;;;11.65;10.52;;;3.40;99.90;;;;;;5062681;28;20500;-85
2021/12/06 00:06:54;;;;;;;11.13;10.05;;;3.40;99.90;;;;;;5059694;28;20256;-85
2021/12/06 00:09:23;;;;;;;11.43;10.32;;;3.50;99.90;;;;;;5059556;28;20749;-85
2021/12/06 00:11:56;;;;;;;10.18;9.18;;;3.70;99.90;;;;;;5059252;28;20203;-85
2021/12/06 00:14:27;;;;;;;9.80;8.90;;;3.80;99.90;;;;;;5059828;28;20212;-85
2021/12/06 00:16:54;;;;;;;10.88;9.75;;;3.90;99.90;;;;;;5059405;28;20231;-85
2021/12/06 00:19:22;;;;;;;10.18;9.27;;;4.00;99.90;;;;;;5059766;28;20217;-84
2021/12/06 00:21:49;;;;;;;12.32;10.52;;;4.10;99.90;;;;;;5059492;28;20212;-84
2021/12/06 00:24:15;;;;;;;11.05;9.95;;;4.10;99.90;;;;;;5059673;28;20236;-85
2021/12/06 00:26:42;;;;;;;11.82;9.60;;;4.20;99.90;;;;;;5059185;28;20635;-84
2021/12/06 00:29:09;;;;;;;10.23;9.23;;;4.20;99.90;;;;;;5060303;28;20219;-85
2021/12/06 00:31:36;;;;;;;10.35;9.60;;;4.20;99.90;;;;;;5059362;28;20209;-85
2021/12/06 00:34:07;;;;;;;13.73;10.85;;;3.90;99.90;;;;;;5059323;28;20197;-84
2021/12/06 00:36:39;;;;;;;11.82;10.63;;;3.90;99.90;;;;;;5059139;28;20221;-85
2021/12/06 00:39:08;;;;;;;11.57;10.57;;;3.80;99.90;;;;;;5058586;28;20494;-84
2021/12/06 00:41:35;;;;;;;11.00;9.95;;;3.80;99.90;;;;;;5058090;28;20698;-83
2021/12/06 00:44:02;;;;;;;9.75;8.95;;;4.00;99.90;;;;;;5058543;28;20229;-84
2021/12/06 00:46:29;;;;;;;10.93;10.13;;;4.00;99.90;;;;;;5058762;28;20320;-83
2021/12/06 00:48:56;;;;;;;10.60;9.65;;;4.00;99.90;;;;;;5058738;28;20540;-84
2021/12/06 00:51:22;;;;;;;10.15;9.15;;;4.10;99.90;;;;;;5057916;28;20212;-84
2021/12/06 00:53:50;;;;;;;13.52;10.00;;;4.00;99.90;;;;;;5058319;28;20205;-84
2021/12/06 00:56:17;;;;;;;10.93;10.02;;;4.10;99.90;;;;;;5058640;28;20227;-84
2021/12/06 00:58:44;;;;;;;12.20;9.43;;;4.10;99.90;;;;;;5058687;28;20205;-85
2021/12/06 01:01:11;;;;;;;12.82;10.35;;;4.10;99.90;;;;;;5058021;28;20205;-84
2021/12/06 01:03:40;;;;;;;9.80;9.10;;;4.00;99.90;;;;;;5058059;28;20592;-84
2021/12/06 01:06:09;;;;;;;11.57;10.48;;;3.90;99.90;;;;;;5058215;28;20229;-83
2021/12/06 01:08:37;;;;;;;10.05;9.20;;;4.00;99.90;;;;;;5058361;28;20682;-83
2021/12/06 01:11:06;;;;;;;9.50;8.70;;;4.00;99.90;;;;;;5057443;28;20217;-83
2021/12/06 01:13:33;;;;;;;11.13;9.95;;;4.10;99.90;;;;;;5058260;28;20201;-84
2021/12/06 01:16:00;;;;;;;10.13;9.10;;;4.10;99.90;;;;;;5057341;28;20232;-82
2021/12/06 01:18:27;;;;;;;10.98;9.93;;;4.20;99.90;;;;;;5057615;28;20206;-84
2021/12/06 01:21:02;;;;;;;11.05;10.10;;;4.20;99.90;;;;;;5056866;28;20200;-84
2021/12/06 01:23:42;;;;;;;10.55;9.55;;;4.20;99.90;;;;;;5057384;28;20235;-83
2021/12/06 01:26:28;;;;;;;11.77;10.52;;;4.20;99.90;;;;;;5057120;28;20776;-84
2021/12/06 01:29:10;;;;;;;12.32;10.50;;;4.30;99.90;;;;;;5057400;28;20283;-83
2021/12/06 01:31:47;;;;;;;10.57;9.57;;;4.30;99.90;;;;;;5057339;28;20209;-84
2021/12/06 01:39:44;;;;;;;10.38;9.40;;;4.20;99.90;;;;;;5057258;28;20334;-83
2021/12/06 01:42:12;;;;;;;11.75;10.68;;;3.90;99.90;;;;;;5056504;28;20209;-84
2021/12/06 01:44:41;;;;;;;9.55;8.70;;;3.60;99.90;;;;;;5057251;28;20225;-83
2021/12/06 01:47:10;;;;;;;10.23;9.38;;;3.70;99.90;;;;;;5057340;28;20222;-84
2021/12/06 01:49:39;;;;;;;9.52;8.55;;;3.70;99.90;;;;;;5057352;28;20208;-84
2021/12/06 01:52:08;;;;;;;9.38;8.40;;;3.30;99.90;;;;;;5057003;28;20211;-84
2021/12/06 01:54:35;;;;;;;9.55;8.55;;;3.10;99.90;;;;;;5057250;28;20206;-83
2021/12/06 01:57:02;;;;;;;9.48;8.55;;;2.90;99.90;;;;;;5058363;28;20707;-84
2021/12/06 01:59:30;;;;;;;8.68;7.72;;;2.90;99.90;;;;;;5065897;28;20206;-82
2021/12/06 02:01:57;;;;;;;10.13;9.18;;;2.90;99.90;;;;;;5071754;28;20198;-82
2021/12/06 02:04:25;;;;;;;12.10;9.52;;;3.00;99.90;;;;;;5077126;28;20246;-82
2021/12/06 02:06:52;;;;;;;10.93;9.93;;;3.00;99.90;;;;;;5076651;28;20229;-81
2021/12/06 02:09:21;;;;;;;12.70;11.10;;;2.90;99.90;;;;;;5063576;28;20200;-84
2021/12/06 02:11:48;;;;;;;10.63;9.55;;;3.00;99.90;;;;;;5058660;28;20205;-84
2021/12/06 02:14:27;;;;;;;11.40;10.30;;;3.00;99.90;;;;;;5058082;28;20203;-83
2021/12/06 02:17:09;;;;;;;11.05;10.05;;;3.20;99.90;;;;;;5056974;28;20327;-84
2021/12/06 02:19:40;;;;;;;11.82;10.63;;;3.30;99.90;;;;;;5057459;28;20305;-84
2021/12/06 02:22:10;;;;;;;13.40;10.50;;;3.20;99.90;;;;;;5057537;28;20213;-82
2021/12/06 02:24:38;;;;;;;11.45;10.23;;;3.10;99.90;;;;;;5056892;28;20228;-84
2021/12/06 02:27:06;;;;;;;13.90;12.40;;;2.90;99.90;;;;;;5056604;28;20238;-84
2021/12/06 02:29:33;;;;;;;11.63;10.45;;;2.80;99.90;;;;;;5056995;28;20210;-84
2021/12/06 02:32:05;;;;;;;10.45;9.48;;;2.80;99.90;;;;;;5056459;28;20583;-84
2021/12/06 02:34:32;;;;;;;11.45;10.35;;;2.80;99.90;;;;;;5057000;28;20189;-84
2021/12/06 02:37:00;;;;;;;11.50;10.40;;;2.80;99.90;;;;;;5056727;28;20228;-84
2021/12/06 02:39:29;;;;;;;12.70;10.30;;;2.80;99.90;;;;;;5056690;28;20236;-84
2021/12/06 02:41:57;;;;;;;10.95;10.00;;;2.80;99.90;;;;;;5055908;28;20201;-84
2021/12/06 02:44:24;;;;;;;12.77;11.50;;;2.80;99.90;;;;;;5057104;28;20602;-84
2021/12/06 02:46:51;;;;;;;14.00;11.50;;;2.90;99.90;;;;;;5056389;28;20220;-84
2021/12/06 02:49:18;;;;;;;13.10;11.52;;;2.90;99.90;;;;;;5056165;28;20699;-82
2021/12/06 02:51:45;;;;;;;15.30;11.98;;;2.80;99.90;;;;;;5055858;28;20601;-83
2021/12/06 02:54:12;;;;;;;11.10;10.07;;;2.60;99.90;;;;;;5056630;28;20206;-84
2021/12/06 02:56:52;;;;;;;13.13;11.77;;;2.60;99.90;;;;;;5055955;28;20229;-84
2021/12/06 02:59:20;;;;;;;12.70;10.95;;;2.70;99.90;;;;;;5056311;28;20211;-85
2021/12/06 03:01:51;;;;;;;12.40;11.18;;;2.90;99.90;;;;;;5055887;28;20203;-84
2021/12/06 03:04:18;;;;;;;13.35;12.25;;;2.90;99.90;;;;;;5056742;28;20337;-83
2021/12/06 03:06:47;;;;;;;11.77;10.55;;;3.00;99.90;;;;;;5055860;28;20281;-84
2021/12/06 03:09:17;;;;;;;18.38;12.90;;;3.10;99.90;;;;;;5056068;28;20279;-85
2021/12/06 03:11:49;;;;;;;13.35;12.10;;;3.10;99.90;;;;;;5056273;28;20208;-84
2021/12/06 03:14:18;;;;;;;13.98;12.50;;;3.10;99.90;;;;;;5056493;28;20204;-84
2021/12/06 03:16:45;;;;;;;15.23;13.63;;;3.00;99.90;;;;;;5055925;28;20243;-84
2021/12/06 03:19:12;;;;;;;15.20;13.55;;;2.90;99.90;;;;;;5056151;28;20215;-84
2021/12/06 03:21:39;;;;;;;16.58;14.32;;;2.80;99.90;;;;;;5056350;28;20202;-84
2021/12/06 03:24:07;;;;;;;15.43;13.93;;;2.80;99.90;;;;;;5056125;28;20235;-84
2021/12/06 03:26:35;;;;;;;15.98;14.32;;;2.80;99.90;;;;;;5055584;28;20578;-84
2021/12/06 03:29:05;;;;;;;14.93;13.32;;;2.90;99.90;;;;;;5056192;28;20687;-83
2021/12/06 03:31:33;;;;;;;16.65;14.85;;;3.00;99.90;;;;;;5055904;28;20299;-84
2021/12/06 03:34:01;;;;;;;15.23;13.77;;;3.10;99.90;;;;;;5056015;28;20210;-84
2021/12/06 03:36:30;;;;;;;16.98;13.90;;;3.20;99.90;;;;;;5059455;28;20230;-84
2021/12/06 03:38:58;;;;;;;15.70;12.75;;;3.30;99.90;;;;;;5059979;28;20304;-84
2021/12/06 03:41:27;;;;;;;14.63;13.23;;;3.40;99.90;;;;;;5059915;28;20208;-83
2021/12/06 03:43:55;;;;;;;16.55;14.85;;;3.40;99.90;;;;;;5060083;28;20238;-83
2021/12/06 03:46:25;;;;;;;16.52;14.52;;;3.30;99.90;;;;;;5059742;28;20243;-84
2021/12/06 03:48:52;;;;;;;16.58;14.95;;;3.10;99.90;;;;;;5039952;28;20206;-84
2021/12/06 03:51:19;;;;;;;15.77;14.18;;;3.20;99.90;;;;;;5039578;28;20557;-84
2021/12/06 03:53:46;;;;;;;17.38;15.60;;;3.10;99.90;;;;;;5059715;28;20212;-84
2021/12/06 03:56:14;;;;;;;17.25;15.48;;;3.20;99.90;;;;;;5060492;28;20232;-85
2021/12/06 03:58:43;;;;;;;17.58;15.52;;;3.40;99.90;;;;;;5060171;28;20212;-84
2021/12/06 04:01:11;;;;;;;16.58;14.88;;;3.40;99.90;;;;;;5060562;28;20237;-85
2021/12/06 04:03:42;;;;;;;19.73;16.00;;;3.50;99.90;;;;;;5059126;28;20234;-83
2021/12/06 04:06:09;;;;;;;18.00;16.10;;;3.70;99.90;;;;;;5059042;28;20226;-84
2021/12/06 04:08:35;;;;;;;16.73;15.02;;;3.60;99.90;;;;;;5059019;28;20215;-84
2021/12/06 04:11:03;;;;;;;18.77;16.95;;;3.60;99.90;;;;;;5058758;28;20209;-84
2021/12/06 04:13:30;;;;;;;18.05;16.25;;;3.40;99.90;;;;;;5059028;28;20211;-82
2021/12/06 04:15:57;;;;;;;23.48;17.35;;;3.60;99.90;;;;;;5084087;22;20208;-83
2021/12/06 04:18:24;;;;;;;18.92;17.02;;;3.50;99.90;;;;;;5065957;28;20302;-83
2021/12/06 04:20:53;;;;;;;20.58;16.73;;;3.50;99.90;;;;;;5065318;28;20210;-84
2021/12/06 04:23:21;;;;;;;25.33;21.00;;;3.60;99.90;;;;;;5065663;28;20204;-84
2021/12/06 04:25:49;;;;;;;19.95;17.95;;;3.50;99.90;;;;;;5065311;28;20225;-84
2021/12/06 04:28:18;;;;;;;22.80;18.77;;;3.60;99.90;;;;;;5064634;28;20668;-84
2021/12/06 04:30:45;;;;;;;23.70;21.25;;;3.40;99.90;;;;;;5064433;28;20234;-83
2021/12/06 04:33:11;;;;;;;23.98;19.23;;;3.20;99.90;;;;;;5065418;28;20565;-84
2021/12/06 04:35:39;;;;;;;26.90;20.55;;;3.20;99.90;;;;;;5064363;28;20210;-82
2021/12/06 04:38:10;;;;;;;24.05;19.00;;;3.20;99.90;;;;;;5064244;28;20207;-85
2021/12/06 04:40:37;;;;;;;22.63;20.20;;;3.20;99.90;;;;;;5064262;28;20202;-83
2021/12/06 04:43:05;;;;;;;29.25;20.95;;;3.20;99.90;;;;;;5065153;28;20714;-83
2021/12/06 04:45:31;;;;;;;24.40;20.33;;;3.10;99.90;;;;;;5063645;28;20223;-84
2021/12/06 04:47:58;;;;;;;27.75;18.67;;;3.00;99.90;;;;;;5063914;28;20238;-84
2021/12/06 04:50:28;;;;;;;33.05;20.75;;;2.90;99.90;;;;;;5063029;28;20205;-84
2021/12/06 04:52:57;;;;;;;29.75;21.58;;;2.80;99.90;;;;;;5063749;28;20234;-84
2021/12/06 04:55:32;;;;;;;25.88;20.27;;;2.80;99.90;;;;;;5063988;28;20206;-84
2021/12/06 04:57:59;;;;;;;22.75;19.30;;;2.90;99.90;;;;;;5062775;28;20231;-84
2021/12/06 05:00:32;;;;;;;23.15;19.50;;;3.00;99.90;;;;;;5063604;28;20199;-84
2021/12/06 05:02:59;;;;;;;32.28;22.73;;;3.00;99.90;;;;;;5063682;28;20205;-84
2021/12/06 05:05:31;;;;;;;23.55;18.58;;;3.10;99.90;;;;;;5063767;28;20219;-84
2021/12/06 05:08:01;;;;;;;27.45;20.95;;;3.30;99.90;;;;;;5063988;28;20221;-84
2021/12/06 05:10:29;;;;;;;24.17;20.38;;;3.10;99.90;;;;;;5062880;28;20662;-84
2021/12/06 05:12:57;;;;;;;30.02;20.25;;;3.20;99.90;;;;;;5063318;28;20198;-84
2021/12/06 05:15:24;;;;;;;27.90;19.98;;;3.10;99.90;;;;;;5063407;28;20201;-84
2021/12/06 05:17:51;;;;;;;24.15;19.98;;;3.30;99.90;;;;;;5060579;28;20319;-83
2021/12/06 05:20:18;;;;;;;26.23;19.50;;;3.20;99.90;;;;;;5058478;28;20199;-83
2021/12/06 05:22:46;;;;;;;29.45;21.05;;;3.10;99.90;;;;;;5058966;28;20218;-83
2021/12/06 05:25:14;;;;;;;23.73;19.27;;;3.10;99.90;;;;;;5058267;28;20225;-83
2021/12/06 05:27:42;;;;;;;25.48;20.08;;;3.10;99.90;;;;;;5058995;28;20777;-82
2021/12/06 05:30:11;;;;;;;30.75;20.63;;;3.10;99.90;;;;;;5057838;28;20213;-83
2021/12/06 05:32:39;;;;;;;29.38;19.45;;;3.00;99.90;;;;;;5058499;28;20220;-83
2021/12/06 05:35:10;;;;;;;25.27;18.63;;;2.90;99.90;;;;;;5058445;28;20207;-83
2021/12/06 05:37:40;;;;;;;31.80;22.42;;;2.90;99.90;;;;;;5059107;28;20219;-83
2021/12/06 05:40:11;;;;;;;27.83;22.00;;;2.90;99.90;;;;;;5058311;28;20202;-84
2021/12/06 05:42:38;;;;;;;30.73;20.08;;;3.00;99.90;;;;;;5058761;28;20601;-84
2021/12/06 05:45:08;;;;;;;31.00;19.65;;;3.10;99.90;;;;;;5058042;28;20230;-83
2021/12/06 05:47:35;;;;;;;31.95;21.33;;;3.20;99.90;;;;;;5059009;28;20234;-84
2021/12/06 05:50:03;;;;;;;29.58;20.58;;;3.20;99.90;;;;;;5062519;28;20198;-84
2021/12/06 05:52:30;;;;;;;25.15;18.13;;;3.20;99.90;;;;;;5062527;28;20226;-84
2021/12/06 05:54:57;;;;;;;27.08;20.73;;;3.30;99.90;;;;;;5065557;28;20218;-84
2021/12/06 05:57:24;;;;;;;28.45;19.15;;;3.20;99.90;;;;;;5062196;28;20255;-84
2021/12/06 05:59:50;;;;;;;23.77;18.52;;;2.90;99.90;;;;;;5062384;28;20225;-84
2021/12/06 06:02:18;;;;;;;24.60;18.45;;;3.10;99.90;;;;;;5062464;28;20206;-84
2021/12/06 06:04:45;;;;;;;27.17;18.45;;;3.00;99.90;;;;;;5062248;28;20230;-84
2021/12/06 06:07:12;;;;;;;26.17;18.25;;;3.00;99.90;;;;;;5062888;28;20229;-84
2021/12/06 06:09:39;;;;;;;28.45;19.83;;;2.90;99.90;;;;;;5063096;28;20204;-82
2021/12/06 06:12:07;;;;;;;23.75;15.55;;;2.90;99.90;;;;;;5062253;28;20206;-84
2021/12/06 06:14:33;;;;;;;23.92;17.50;;;2.90;99.90;;;;;;5063073;28;20215;-84
2021/12/06 06:17:08;;;;;;;20.00;15.68;;;2.80;99.90;;;;;;5062890;28;20300;-84
2021/12/06 06:19:39;;;;;;;20.30;16.55;;;2.70;99.90;;;;;;5062431;28;20221;-84
2021/12/06 06:22:06;;;;;;;23.02;17.48;;;2.50;99.90;;;;;;5062359;28;20210;-85
2021/12/06 06:24:33;;;;;;;25.38;17.95;;;2.60;99.90;;;;;;5062079;28;20215;-83
2021/12/06 06:27:00;;;;;;;29.45;18.48;;;2.50;99.90;;;;;;5061196;28;20218;-84
2021/12/06 06:29:27;;;;;;;22.92;17.98;;;2.50;99.90;;;;;;5061307;28;20200;-84
2021/12/06 06:31:54;;;;;;;28.73;21.10;;;2.50;99.90;;;;;;5061395;28;20217;-84
2021/12/06 06:34:21;;;;;;;29.58;19.50;;;2.50;99.90;;;;;;5062134;28;20197;-85
2021/12/06 06:36:49;;;;;;;22.02;17.15;;;2.60;99.90;;;;;;5061581;28;20310;-84
2021/12/06 06:39:19;;;;;;;26.08;18.88;;;2.60;99.90;;;;;;5061733;28;20208;-83
2021/12/06 06:41:46;;;;;;;21.95;18.10;;;2.70;99.90;;;;;;5061895;28;20200;-84
2021/12/06 06:44:17;;;;;;;22.42;17.85;;;2.70;99.90;;;;;;5060826;28;20210;-86
2021/12/06 06:46:45;;;;;;;33.60;21.05;;;2.80;99.90;;;;;;5060534;28;20229;-84
2021/12/06 06:49:13;;;;;;;25.02;18.02;;;2.80;99.90;;;;;;5039422;28;20207;-83
2021/12/06 06:51:41;;;;;;;23.13;17.67;;;2.80;99.90;;;;;;5052885;28;20208;-83
2021/12/06 06:54:09;;;;;;;22.17;17.77;;;3.00;99.90;;;;;;5059298;28;20568;-83
2021/12/06 06:56:36;;;;;;;22.08;17.98;;;3.00;99.90;;;;;;5059287;28;20222;-82
2021/12/06 06:59:04;;;;;;;21.35;15.75;;;3.20;99.90;;;;;;5039598;28;20212;-84
2021/12/06 07:01:31;;;;;;;31.98;20.27;;;3.30;99.90;;;;;;5050431;28;20202;-84
2021/12/06 07:03:58;;;;;;;22.00;16.40;;;3.30;99.90;;;;;;5059140;28;20220;-83
2021/12/06 07:06:26;;;;;;;24.38;18.70;;;3.40;99.90;;;;;;5058800;28;20232;-83
2021/12/06 07:08:56;;;;;;;20.85;16.10;;;3.30;99.90;;;;;;5059083;28;20206;-84
2021/12/06 07:11:25;;;;;;;27.02;19.30;;;3.30;99.90;;;;;;5059018;28;20220;-83
2021/12/06 07:13:52;;;;;;;23.35;15.75;;;3.20;99.90;;;;;;5058033;28;20213;-84
2021/12/06 07:16:19;;;;;;;24.75;18.55;;;3.20;99.90;;;;;;5060018;28;20233;-83
2021/12/06 07:18:47;;;;;;;24.00;17.90;;;3.10;99.90;;;;;;5071353;28;20221;-82
2021/12/06 07:21:14;;;;;;;28.02;18.17;;;3.00;99.90;;;;;;5072512;28;20188;-82
2021/12/06 07:23:42;;;;;;;26.95;20.85;;;3.10;99.90;;;;;;5062902;28;20260;-81
2021/12/06 07:26:10;;;;;;;27.63;21.27;;;3.30;99.90;;;;;;5062395;28;20224;-81
2021/12/06 07:28:39;;;;;;;25.60;18.65;;;3.40;99.90;;;;;;5060447;28;20211;-82
2021/12/06 07:31:06;;;;;;;20.00;17.50;;;3.40;99.90;;;;;;5064161;28;20272;-82
2021/12/06 07:33:33;;;;;;;24.08;16.88;;;3.20;99.90;;;;;;5058935;28;20208;-82
2021/12/06 07:36:01;;;;;;;30.60;19.45;;;3.10;99.90;;;;;;5055249;28;20221;-83
2021/12/06 07:38:28;;;;;;;32.50;20.10;;;3.10;99.90;;;;;;5048042;28;20208;-83
2021/12/06 07:40:56;;;;;;;30.42;20.20;;;2.90;99.90;;;;;;5045715;28;20204;-83
2021/12/06 07:43:24;;;;;;;21.73;17.90;;;2.90;99.90;;;;;;5047959;28;20204;-84
2021/12/06 07:45:52;;;;;;;29.85;19.48;;;3.10;99.90;;;;;;5046537;28;20849;-84
2021/12/06 07:48:19;;;;;;;27.88;18.25;;;3.10;99.90;;;;;;5046437;28;20196;-84
2021/12/06 07:50:46;;;;;;;29.33;19.10;;;3.10;99.90;;;;;;5046101;28;20197;-84
2021/12/06 07:53:12;;;;;;;23.58;18.27;;;3.10;99.90;;;;;;5048259;28;20213;-84
2021/12/06 07:55:39;;;;;;;22.50;15.70;;;3.00;99.90;;;;;;5047447;28;20198;-81
2021/12/06 07:58:08;;;;;;;22.10;16.42;;;2.90;99.90;;;;;;5039344;28;20211;-83
2021/12/06 08:00:38;;;;;;;23.80;15.25;;;2.80;99.90;;;;;;5042868;28;20196;-83
2021/12/06 08:03:07;;;;;;;23.42;16.48;;;2.70;99.90;;;;;;5057525;28;20229;-82
2021/12/06 08:05:37;;;;;;;24.45;15.40;;;2.60;99.90;;;;;;5057598;28;20244;-83
2021/12/06 08:08:11;;;;;;;24.30;17.00;;;2.60;99.90;;;;;;5058790;28;20228;-86
2021/12/06 08:10:43;;;;;;;27.92;18.52;;;2.70;99.90;;;;;;5040943;28;20209;-82
2021/12/06 08:13:11;;;;;;;27.05;17.75;;;2.80;99.90;;;;;;5056244;28;20205;-81
2021/12/06 08:15:39;;;;;;;23.23;14.60;;;2.80;99.90;;;;;;5057122;28;20655;-82
2021/12/06 08:18:08;;;;;;;20.17;12.70;;;2.90;99.90;;;;;;5057202;28;20203;-80
2021/12/06 08:20:37;;;;;;;28.40;16.90;;;3.00;99.90;;;;;;5055896;28;20214;-84
2021/12/06 08:23:05;;;;;;;23.70;15.20;;;3.10;99.90;;;;;;5060450;28;20201;-83
2021/12/06 08:25:32;;;;;;;21.48;16.20;;;3.30;99.90;;;;;;5062268;28;20216;-83
2021/12/06 08:28:00;;;;;;;18.98;12.93;;;3.30;99.90;;;;;;5062417;28;20222;-83
2021/12/06 08:30:27;;;;;;;22.27;13.98;;;3.40;99.90;;;;;;5063735;28;20204;-82
2021/12/06 08:33:00;;;;;;;23.52;14.52;;;3.30;99.90;;;;;;5063538;28;20389;-84
2021/12/06 08:35:29;;;;;;;23.67;16.67;;;3.30;99.90;;;;;;5063672;28;20662;-82
2021/12/06 08:37:58;;;;;;;27.40;15.30;;;3.20;99.90;;;;;;5061346;28;20226;-82
2021/12/06 08:40:26;;;;;;;22.25;15.43;;;3.10;99.90;;;;;;5055859;28;20201;-82
2021/12/06 08:42:53;;;;;;;26.52;14.88;;;3.10;99.90;;;;;;5051737;28;20204;-83
2021/12/06 08:45:21;;;;;;;21.17;14.65;;;3.20;99.90;;;;;;5061978;28;20695;-81
2021/12/06 08:47:48;;;;;;;18.08;13.60;;;3.10;99.90;;;;;;5062082;28;20229;-82
2021/12/06 08:50:19;;;;;;;17.67;14.25;;;3.10;99.90;;;;;;5060686;28;20224;-82
2021/12/06 08:52:47;;;;;;;17.83;14.70;;;3.00;99.90;;;;;;5063259;28;20655;-83
2021/12/06 08:55:15;;;;;;;16.55;13.32;;;2.90;99.90;;;;;;5064277;28;20206;-82
2021/12/06 08:57:42;;;;;;;20.67;13.68;;;3.00;99.90;;;;;;5061578;28;20227;-83
2021/12/06 09:00:14;;;;;;;21.27;14.77;;;3.00;99.90;;;;;;5061155;28;20217;-81
2021/12/06 09:02:42;;;;;;;14.30;11.00;;;3.00;99.90;;;;;;5060923;28;20200;-81
2021/12/06 09:05:10;;;;;;;15.25;12.70;;;3.00;99.90;;;;;;5063139;28;20682;-82
2021/12/06 09:07:37;;;;;;;14.57;11.75;;;3.00;99.90;;;;;;5065285;28;20725;-81
2021/12/06 09:10:10;;;;;;;13.85;11.40;;;3.10;99.90;;;;;;5064432;28;20299;-82
2021/12/06 09:12:37;;;;;;;15.95;12.00;;;3.10;99.90;;;;;;5063501;28;20228;-83
2021/12/06 09:15:08;;;;;;;15.55;10.85;;;3.10;99.90;;;;;;5064205;28;20210;-80
2021/12/06 09:17:35;;;;;;;15.52;11.73;;;3.10;99.90;;;;;;5063392;28;20233;-82
2021/12/06 09:20:02;;;;;;;18.55;13.02;;;3.10;99.90;;;;;;5065525;28;20218;-81
2021/12/06 09:22:29;;;;;;;18.80;14.80;;;3.20;99.90;;;;;;5061126;28;20205;-84
2021/12/06 09:24:55;;;;;;;16.38;11.70;;;3.40;99.90;;;;;;5063076;28;20194;-82
2021/12/06 09:27:23;;;;;;;15.30;10.52;;;3.50;99.90;;;;;;5061640;28;20260;-84
2021/12/06 09:29:50;;;;;;;14.75;10.90;;;3.60;99.90;;;;;;5061811;28;20198;-83
2021/12/06 09:32:18;;;;;;;17.50;12.63;;;3.80;99.90;;;;;;5060458;28;20215;-81
2021/12/06 09:34:47;;;;;;;20.20;13.35;;;3.90;99.90;;;;;;5058133;28;20201;-81
2021/12/06 09:37:15;;;;;;;15.73;11.77;;;3.90;99.90;;;;;;5058924;28;20269;-82
2021/12/06 09:39:43;;;;;;;16.45;10.60;;;3.90;99.90;;;;;;5059515;28;20233;-81
2021/12/06 09:42:10;;;;;;;13.63;11.50;;;3.90;99.90;;;;;;5058043;28;20205;-82
2021/12/06 09:44:38;;;;;;;16.42;12.43;;;4.10;99.90;;;;;;5057808;28;20208;-83
2021/12/06 09:47:05;;;;;;;16.05;11.05;;;4.20;99.90;;;;;;5058424;28;20240;-83
2021/12/06 09:49:33;;;;;;;14.18;11.82;;;4.30;99.90;;;;;;5057884;28;20215;-83
2021/12/06 09:52:04;;;;;;;13.73;11.73;;;4.30;99.90;;;;;;5057508;28;20217;-81
2021/12/06 09:54:33;;;;;;;12.90;11.32;;;4.40;99.90;;;;;;5053610;28;20204;-83
2021/12/06 09:57:01;;;;;;;15.30;11.32;;;4.40;99.90;;;;;;5054179;28;20713;-81
2021/12/06 09:59:29;;;;;;;10.95;9.75;;;4.30;99.90;;;;;;5053205;28;20551;-81
2021/12/06 10:02:02;;;;;;;14.05;10.27;;;4.40;99.90;;;;;;5051875;28;20675;-79
2021/12/06 10:04:32;;;;;;;13.60;10.80;;;4.40;99.90;;;;;;5053551;28;20245;-81
2021/12/06 10:06:59;;;;;;;13.27;10.75;;;4.30;99.90;;;;;;5052727;28;20221;-79
2021/12/06 10:09:27;;;;;;;13.85;10.93;;;4.10;99.90;;;;;;5053338;28;20201;-79
2021/12/06 10:11:57;;;;;;;14.20;10.50;;;4.00;99.90;;;;;;5052458;28;20236;-82
2021/12/06 10:14:24;;;;;;;15.52;11.90;;;3.90;99.90;;;;;;5053397;28;20216;-81
2021/12/06 10:16:51;;;;;;;20.67;11.20;;;3.80;99.90;;;;;;5052822;28;20237;-81
2021/12/06 10:19:21;;;;;;;16.95;11.18;;;3.90;99.90;;;;;;5053446;28;20206;-82
2021/12/06 10:21:48;;;;;;;15.35;9.82;;;3.90;99.90;;;;;;5052708;28;20293;-81
2021/12/06 10:24:18;;;;;;;16.17;10.93;;;3.90;99.90;;;;;;5052395;28;20200;-80
2021/12/06 10:26:45;;;;;;;13.02;8.75;;;4.00;99.90;;;;;;5051887;28;20225;-82
2021/12/06 10:29:20;;;;;;;15.27;10.30;;;4.00;99.90;;;;;;5052391;28;20670;-81
2021/12/06 10:31:50;;;;;;;14.93;10.73;;;4.20;99.90;;;;;;5052474;28;20580;-81
2021/12/06 10:34:22;;;;;;;12.80;8.93;;;4.20;99.90;;;;;;5053032;28;20209;-81
2021/12/06 10:36:49;;;;;;;11.88;9.13;;;4.30;99.90;;;;;;5053042;28;20218;-80
2021/12/06 10:39:16;;;;;;;13.85;8.18;;;4.30;99.90;;;;;;5053102;28;20200;-81
2021/12/06 10:41:43;;;;;;;11.18;7.72;;;4.40;99.90;;;;;;5052759;28;20240;-80
2021/12/06 10:44:13;;;;;;;8.00;7.18;;;4.50;99.90;;;;;;5052479;28;20202;-81
2021/12/06 10:46:43;;;;;;;10.90;9.18;;;4.60;99.90;;;;;;5052700;28;20233;-81
2021/12/06 10:49:14;;;;;;;9.73;8.32;;;4.80;99.90;;;;;;5052161;28;20220;-81
2021/12/06 10:51:42;;;;;;;10.52;7.68;;;4.80;99.90;;;;;;5051938;28;20198;-82
2021/12/06 10:54:17;;;;;;;11.25;8.55;;;5.00;99.90;;;;;;5052503;28;20689;-81
2021/12/06 10:56:47;;;;;;;9.73;8.82;;;5.10;99.90;;;;;;5052761;28;20291;-81
2021/12/06 10:59:16;;;;;;;9.25;7.80;;;5.20;99.90;;;;;;5052812;28;20236;-81
2021/12/06 11:01:43;;;;;;;9.02;7.13;;;5.30;99.90;;;;;;5052647;28;20676;-82
2021/12/06 11:04:14;;;;;;;8.20;7.10;;;5.50;99.90;;;;;;5052520;28;20209;-81
2021/12/06 11:06:44;;;;;;;11.13;6.90;;;5.40;99.90;;;;;;5052615;28;20229;-82
2021/12/06 11:09:13;;;;;;;8.85;7.95;;;5.30;99.90;;;;;;5055456;28;20212;-84
2021/12/06 11:11:41;;;;;;;12.98;8.57;;;5.10;99.90;;;;;;5057356;28;20573;-84
2021/12/06 11:14:10;;;;;;;9.85;5.78;;;5.20;99.90;;;;;;5057066;28;20209;-83
2021/12/06 11:16:39;;;;;;;4.55;4.03;;;5.60;99.90;;;;;;5056167;28;20612;-82
2021/12/06 11:19:08;;;;;;;5.43;4.60;;;5.80;99.90;;;;;;5055706;28;20212;-82
2021/12/06 11:21:39;;;;;;;6.15;4.57;;;5.90;99.90;;;;;;5055979;28;20209;-81
2021/12/06 11:24:20;;;;;;;6.60;4.88;;;5.90;99.90;;;;;;5054307;28;20574;-82
2021/12/06 11:26:51;;;;;;;7.30;5.15;;;6.00;99.90;;;;;;5059054;28;20222;-80
2021/12/06 11:29:22;;;;;;;5.05;3.75;;;6.00;99.90;;;;;;5058639;28;20667;-81
2021/12/06 11:31:53;;;;;;;4.20;3.70;;;6.10;99.90;;;;;;5043829;28;20195;-81
2021/12/06 11:34:21;;;;;;;4.63;4.22;;;6.60;99.90;;;;;;5054001;28;20708;-80
2021/12/06 11:36:48;;;;;;;4.43;3.70;;;7.40;99.90;;;;;;5057195;28;20588;-81
2021/12/06 11:39:20;;;;;;;4.32;3.80;;;7.70;99.90;;;;;;5057039;28;20209;-81
2021/12/06 11:41:49;;;;;;;4.30;3.00;;;8.00;99.90;;;;;;5056501;28;20205;-81
2021/12/06 11:44:30;;;;;;;4.05;3.05;;;8.40;99.40;;;;;;5056859;28;20202;-81
2021/12/06 11:47:02;;;;;;;4.93;4.43;;;8.60;99.70;;;;;;5056299;28;20233;-81
2021/12/06 11:49:33;;;;;;;4.15;3.70;;;9.40;98.50;;;;;;5056573;28;20210;-81
2021/12/06 11:52:00;;;;;;;3.67;3.38;;;10.10;96.60;;;;;;5056597;28;20214;-81
2021/12/06 11:54:39;;;;;;;5.07;3.47;;;11.10;94.70;;;;;;5056326;28;20207;-81
2021/12/06 11:57:14;;;;;;;3.70;3.40;;;12.50;93.60;;;;;;5059076;28;20470;-81
2021/12/06 11:59:51;;;;;;;4.13;3.83;;;13.60;90.30;;;;;;5060619;28;20451;-81
2021/12/06 12:02:30;;;;;;;4.73;4.10;;;14.50;87.40;;;;;;5060509;28;20440;-81
2021/12/06 12:05:13;;;;;;;6.27;4.37;;;15.20;83.30;;;;;;5060534;28;20456;-81
2021/12/06 12:08:00;;;;;;;4.73;4.20;;;15.80;81.60;;;;;;5060376;28;20488;-82
2021/12/06 12:10:34;;;;;;;3.70;3.33;;;16.30;76.80;;;;;;5059815;28;20451;-82
2021/12/06 12:13:01;;;;;;;4.00;3.50;;;16.40;73.10;;;;;;5060503;28;20448;-81
2021/12/06 12:15:29;;;;;;;3.77;3.47;;;16.60;71.30;;;;;;5060737;28;20459;-81
2021/12/06 12:17:55;;;;;;;3.80;3.50;;;17.20;70.70;;;;;;5060495;28;20472;-82
2021/12/06 12:20:24;;;;;;;4.40;4.00;;;17.10;67.60;;;;;;5059988;28;20452;-81
2021/12/06 12:22:54;;;;;;;5.20;4.50;;;17.20;66.50;;;;;;5062269;28;20491;-81
2021/12/06 12:25:27;;;;;;;5.37;4.97;;;17.00;67.90;;;;;;5065122;28;20466;-81
2021/12/06 12:28:01;;;;;;;3.17;2.87;;;17.00;67.60;;;;;;5064578;28;21015;-81
2021/12/06 12:30:32;;;;;;;4.27;3.87;;;17.60;67.50;;;;;;5065811;28;20541;-81
2021/12/06 12:33:01;;;;;;;4.30;3.90;;;17.90;63.00;;;;;;5061897;28;20449;-81
2021/12/06 12:35:29;;;;;;;4.40;4.00;;;16.80;61.00;;;;;;5060162;28;20448;-81
2021/12/06 12:37:57;;;;;;;5.23;4.87;;;15.80;66.40;;;;;;5060330;28;20491;-81
2021/12/06 12:40:28;;;;;;;4.53;4.13;;;15.80;66.70;;;;;;5059920;28;20452;-81
2021/12/06 12:42:58;;;;;;;4.27;3.80;;;15.90;67.90;;;;;;5060122;28;20457;-81
2021/12/06 12:45:32;;;;;;;4.00;3.47;;;15.90;65.80;;;;;;5059679;28;20805;-81
2021/12/06 12:47:58;;;;;;;3.97;3.67;;;15.60;66.70;;;;;;5060561;28;20487;-81
2021/12/06 12:50:30;;;;;;;4.80;4.37;;;15.90;68.20;;;;;;5059782;28;20448;-81
2021/12/06 12:52:59;;;;;;;5.10;4.60;;;15.20;67.60;;;;;;5059567;28;20813;-81
2021/12/06 12:55:30;;;;;;;4.20;3.90;;;14.90;69.00;;;;;;5059319;28;21011;-81